German Flatts, New York
Current Conditions -  °F | °C
As of 6:53 AM on Monday 20 Oct 2014 (Local Time) from KRME Reporting Station
Overcast Overcast  
Wind Chill: 30°   Ceiling: 11000
Heat Index: 36°   Visibility: 10mi
Dew Point: 33°   Wind: 7mph
Humidity: 89%   Direction: 90°E
Pressure: 30.01"   Gusts: NA
Location:  42.9627°N, 74.9432°W
Report Text: KRME 201053Z 09006KT 10SM OVC110 02/01 A3001 RMK AO2 SLP166 T00220006
Loading
Personal Weather Stations






























Interactive Weather Map
Tropical Storm Tracking
New forecast layout! Learn more

10-Day Weather Forecast

Advertisements
Track Severe Weather on mobile